Time;durP1;ratioP1;P1;durP2;ratioP2;P2;SDS_P1;SDS_P2;PMS_P1;PMS_P2;Temp;Humidity;BMP_temperature;BMP_pressure;BME280_temperature;BME280_humidity;BME280_pressure;Samples;Min_cycle;Max_cycle;Signal;HPM_P1;HPM_P2
2023/10/13 00:01:11;;;;;;;114.28;41.30;;;13.90;99.90;;;;;;5051961;28;20083;-81
2023/10/13 00:03:37;;;;;;;91.88;40.00;;;13.90;99.90;;;;;;5038551;28;20048;-81
2023/10/13 00:06:03;;;;;;;67.63;34.60;;;14.30;99.90;;;;;;5049163;28;20559;-85
2023/10/13 00:08:31;;;;;;;85.43;38.72;;;15.60;99.90;;;;;;5033502;28;20542;-83
2023/10/13 00:11:00;;;;;;;56.08;32.58;;;13.00;99.90;;;;;;5042222;28;20044;-85
2023/10/13 00:13:34;;;;;;;86.82;39.50;;;14.10;99.90;;;;;;5043413;28;20134;-85
2023/10/13 00:15:59;;;;;;;59.53;34.03;;;14.20;99.90;;;;;;5044093;28;20480;-85
2023/10/13 00:18:27;;;;;;;67.13;35.35;;;14.20;99.90;;;;;;5045509;28;20048;-85
2023/10/13 00:20:56;;;;;;;68.22;35.78;;;14.70;99.90;;;;;;5045167;28;20097;-82
2023/10/13 00:23:22;;;;;;;55.67;33.25;;;14.30;99.90;;;;;;5044559;28;20043;-83
2023/10/13 00:25:59;;;;;;;82.35;37.80;;;14.30;99.90;;;;;;5041302;28;20044;-82
2023/10/13 00:28:26;;;;;;;102.72;42.42;;;14.20;99.90;;;;;;5042304;28;20086;-84
2023/10/13 00:31:00;;;;;;;55.40;32.80;;;14.50;99.90;;;;;;5040685;28;20036;-85
2023/10/13 00:33:26;;;;;;;105.30;43.33;;;14.30;99.90;;;;;;5042913;28;20041;-83
2023/10/13 00:35:52;;;;;;;81.78;38.60;;;14.40;99.90;;;;;;5040996;28;20032;-84
2023/10/13 00:38:19;;;;;;;78.28;38.38;;;14.50;99.90;;;;;;5044899;28;20055;-85
2023/10/13 00:40:53;;;;;;;54.97;30.77;;;14.50;99.90;;;;;;5050261;28;20173;-83
2023/10/13 00:45:55;;;;;;;60.22;33.40;;;14.60;99.90;;;;;;5061132;28;20040;-87
2023/10/13 00:48:32;;;;;;;81.82;38.08;;;14.60;99.90;;;;;;5045145;28;20071;-87
2023/10/13 00:51:08;;;;;;;62.70;33.53;;;14.70;99.90;;;;;;5041077;28;20530;-85
2023/10/13 00:53:40;;;;;;;72.93;35.42;;;14.70;99.90;;;;;;5044092;28;20115;-84
2023/10/13 00:56:07;;;;;;;77.03;36.72;;;14.80;99.90;;;;;;5045039;28;20032;-83
2023/10/13 00:58:39;;;;;;;64.60;33.88;;;15.50;99.90;;;;;;5050766;28;20054;-86
2023/10/13 01:01:29;;;;;;;60.78;32.28;;;14.80;99.90;;;;;;5042846;28;20032;-83
2023/10/13 01:03:55;;;;;;;70.15;34.35;;;14.80;99.90;;;;;;5036913;28;20075;-85
2023/10/13 01:06:25;;;;;;;73.93;36.15;;;14.90;99.90;;;;;;5040124;28;20029;-86
2023/10/13 01:09:16;;;;;;;53.70;30.33;;;14.90;99.90;;;;;;5048355;28;20040;-82
2023/10/13 01:11:52;;;;;;;72.65;34.90;;;14.90;99.90;;;;;;5044928;28;20043;-85
2023/10/13 01:14:20;;;;;;;60.58;31.35;;;15.00;99.90;;;;;;5070161;28;20044;-84
2023/10/13 01:16:47;;;;;;;56.45;28.38;;;15.00;99.90;;;;;;5037461;28;20039;-80
2023/10/13 01:19:14;;;;;;;53.75;28.38;;;15.90;99.90;;;;;;5040395;28;20040;-85
2023/10/13 01:21:47;;;;;;;53.80;28.88;;;15.80;99.90;;;;;;5046487;28;20040;-83
2023/10/13 01:24:18;;;;;;;60.40;27.80;;;15.20;99.90;;;;;;5045110;28;20037;-85
2023/10/13 01:26:44;;;;;;;49.92;25.73;;;15.20;99.90;;;;;;5063572;28;20479;-85
2023/10/13 01:29:14;;;;;;;47.45;25.92;;;15.30;99.90;;;;;;5047902;28;20493;-85
2023/10/13 01:31:47;;;;;;;46.88;25.40;;;16.70;99.90;;;;;;5045121;28;20045;-86
2023/10/13 01:34:21;;;;;;;46.20;24.25;;;15.30;99.90;;;;;;5061228;28;20369;-81
2023/10/13 01:36:51;;;;;;;45.60;22.73;;;15.40;99.90;;;;;;5044811;28;20499;-85
2023/10/13 01:39:26;;;;;;;43.83;23.52;;;15.40;99.90;;;;;;5048129;28;20048;-85
2023/10/13 01:41:55;;;;;;;43.13;22.23;;;15.40;99.90;;;;;;5036734;28;20037;-86
2023/10/13 01:44:21;;;;;;;42.03;22.02;;;15.40;99.90;;;;;;5044962;28;20123;-87
2023/10/13 01:46:47;;;;;;;37.45;21.67;;;15.40;99.90;;;;;;5047438;28;20127;-86
2023/10/13 01:49:17;;;;;;;38.03;20.95;;;15.50;99.90;;;;;;5047932;28;20164;-86
2023/10/13 01:51:48;;;;;;;35.03;19.88;;;15.50;99.90;;;;;;5071042;28;20037;-86
2023/10/13 01:54:15;;;;;;;45.53;19.35;;;15.50;99.90;;;;;;5044049;28;20377;-86
2023/10/13 01:56:48;;;;;;;33.00;18.95;;;15.50;99.90;;;;;;5046548;28;20040;-87
2023/10/13 01:59:15;;;;;;;31.95;17.30;;;16.50;99.90;;;;;;5047706;28;20071;-88
2023/10/13 02:01:41;;;;;;;27.83;15.85;;;15.50;99.90;;;;;;5044046;28;20475;-86
2023/10/13 02:04:08;;;;;;;32.30;15.18;;;16.50;99.90;;;;;;5043729;28;20049;-85
2023/10/13 02:06:37;;;;;;;20.30;14.95;;;15.60;99.90;;;;;;5045308;28;20483;-85
2023/10/13 02:09:16;;;;;;;27.80;17.17;;;15.60;99.90;;;;;;5046355;28;20040;-83
2023/10/13 02:11:45;;;;;;;25.98;15.05;;;16.90;99.90;;;;;;5044352;28;20126;-83
2023/10/13 02:14:12;;;;;;;30.33;16.52;;;14.80;99.90;;;;;;5043112;28;20146;-82
2023/10/13 02:16:41;;;;;;;29.63;16.98;;;16.90;99.90;;;;;;5043410;28;20043;-85
2023/10/13 02:19:15;;;;;;;35.72;17.75;;;15.60;99.90;;;;;;5060311;28;20048;-86
2023/10/13 02:21:43;;;;;;;31.45;16.17;;;15.60;99.90;;;;;;5045552;28;20090;-80
2023/10/13 02:24:13;;;;;;;33.95;17.73;;;15.60;99.90;;;;;;5047019;28;20044;-81
2023/10/13 02:26:40;;;;;;;36.78;18.25;;;15.60;99.90;;;;;;5060085;28;20113;-84
2023/10/13 02:29:13;;;;;;;34.47;17.80;;;15.60;99.90;;;;;;5042631;28;20091;-84
2023/10/13 02:31:42;;;;;;;22.33;15.82;;;15.60;99.90;;;;;;5040000;28;20131;-81
2023/10/13 02:34:08;;;;;;;23.13;15.13;;;15.70;99.90;;;;;;5036736;28;20578;-84
2023/10/13 02:36:48;;;;;;;25.33;15.73;;;15.60;99.90;;;;;;5039135;28;20131;-84
2023/10/13 02:39:24;;;;;;;24.30;15.88;;;16.40;99.90;;;;;;5042781;28;20080;-83
2023/10/13 02:41:50;;;;;;;26.70;17.50;;;16.20;99.90;;;;;;5042661;28;20468;-84
2023/10/13 02:44:33;;;;;;;30.95;17.80;;;15.70;99.90;;;;;;5044859;28;20066;-82
2023/10/13 02:46:59;;;;;;;38.60;20.65;;;15.80;99.90;;;;;;5036485;28;20098;-79
2023/10/13 02:49:26;;;;;;;31.85;19.45;;;15.80;99.90;;;;;;5042738;28;20053;-85
2023/10/13 02:52:16;;;;;;;33.13;20.20;;;16.50;99.90;;;;;;5052066;28;20075;-84
2023/10/13 02:54:50;;;;;;;33.03;21.20;;;15.70;99.90;;;;;;5050677;28;20041;-83
2023/10/13 02:57:21;;;;;;;39.13;23.02;;;15.70;99.90;;;;;;5029892;28;20048;-84
2023/10/13 02:59:48;;;;;;;48.38;25.05;;;15.70;99.90;;;;;;5050900;28;20126;-80
2023/10/13 03:02:18;;;;;;;42.40;24.30;;;16.70;99.90;;;;;;5035740;28;20163;-84
2023/10/13 03:04:46;;;;;;;41.78;25.52;;;15.70;99.90;;;;;;5038594;28;20097;-85
2023/10/13 03:07:15;;;;;;;53.75;27.38;;;15.70;99.90;;;;;;5036327;28;20380;-84
2023/10/13 03:09:50;;;;;;;52.97;29.10;;;15.80;99.90;;;;;;5037886;28;20051;-83
2023/10/13 03:12:16;;;;;;;47.05;27.15;;;15.80;99.90;;;;;;5036655;28;20370;-86
2023/10/13 03:14:46;;;;;;;47.97;27.02;;;15.80;99.90;;;;;;5037449;28;20111;-83
2023/10/13 03:17:16;;;;;;;47.33;26.80;;;16.50;99.90;;;;;;5037097;28;20040;-84
2023/10/13 03:19:46;;;;;;;41.40;24.27;;;15.80;99.90;;;;;;5039936;28;20088;-81
2023/10/13 03:22:16;;;;;;;42.33;25.13;;;15.80;99.90;;;;;;5038399;28;20119;-84
2023/10/13 03:24:53;;;;;;;38.47;22.90;;;16.40;99.90;;;;;;5031993;28;20523;-84
2023/10/13 03:27:23;;;;;;;38.15;22.60;;;15.80;99.90;;;;;;5036508;28;20129;-83
2023/10/13 03:29:56;;;;;;;31.60;19.15;;;15.90;99.90;;;;;;5033572;28;20106;-83
2023/10/13 03:32:21;;;;;;;27.88;18.05;;;15.80;99.90;;;;;;5048978;28;20543;-81
2023/10/13 03:35:10;;;;;;;23.23;16.00;;;15.80;99.90;;;;;;5040235;28;20072;-83
2023/10/13 03:37:38;;;;;;;18.65;14.85;;;15.80;99.90;;;;;;5046631;28;20060;-81
2023/10/13 03:45:26;;;;;;;17.42;12.38;;;15.80;99.90;;;;;;5048832;28;20048;-82
2023/10/13 03:47:52;;;;;;;21.05;15.13;;;15.80;99.90;;;;;;5033313;28;20063;-80
2023/10/13 03:50:29;;;;;;;21.73;14.20;;;16.10;99.90;;;;;;5032070;28;20068;-81
2023/10/13 03:52:58;;;;;;;18.98;13.32;;;15.80;99.90;;;;;;5037840;28;20080;-83
2023/10/13 03:55:28;;;;;;;18.67;13.77;;;15.80;99.90;;;;;;5038716;28;20061;-81
2023/10/13 03:57:54;;;;;;;19.65;14.93;;;15.90;99.90;;;;;;5042133;28;20529;-80
2023/10/13 04:00:23;;;;;;;23.50;16.65;;;15.80;99.90;;;;;;5041746;28;20044;-82
2023/10/13 04:03:06;;;;;;;26.15;16.50;;;15.80;99.90;;;;;;5038623;28;20169;-80
2023/10/13 04:06:00;;;;;;;19.80;16.23;;;15.90;99.90;;;;;;5039353;28;20051;-82
2023/10/13 04:27:19;;;;;;;23.02;16.55;;;15.90;99.90;;;;;;5057338;28;20045;-83
2023/10/13 04:32:28;;;;;;;26.80;16.15;;;15.90;99.90;;;;;;5055707;28;20084;-83
2023/10/13 04:37:54;;;;;;;20.95;14.65;;;15.90;99.90;;;;;;5060484;28;20524;-83
2023/10/13 04:40:24;;;;;;;23.65;15.57;;;15.90;99.90;;;;;;5045489;28;20036;-83
2023/10/13 04:42:56;;;;;;;23.30;15.77;;;15.90;99.90;;;;;;5041072;28;20037;-83
2023/10/13 04:48:13;;;;;;;20.95;16.05;;;15.90;99.90;;;;;;5051589;28;20463;-85
2023/10/13 04:50:44;;;;;;;28.95;17.55;;;15.90;99.90;;;;;;5041226;28;20052;-82
2023/10/13 04:54:00;;;;;;;27.48;17.45;;;15.90;99.90;;;;;;5051801;28;20218;-83
2023/10/13 04:59:17;;;;;;;28.40;16.20;;;15.90;99.90;;;;;;5016851;28;20045;-82
2023/10/13 05:05:11;;;;;;;22.00;15.40;;;15.90;99.90;;;;;;5055350;28;20072;-82
2023/10/13 05:51:33;;;;;;;10.40;6.20;;;15.70;99.90;;;;;;5044684;28;20488;-81
2023/10/13 06:29:53;;;;;;;5.85;4.80;;;15.60;99.90;;;;;;5043667;28;20208;-81
2023/10/13 06:32:19;;;;;;;5.38;4.40;;;15.60;99.90;;;;;;5027989;28;20051;-83
2023/10/13 06:34:45;;;;;;;4.95;4.50;;;15.60;99.90;;;;;;5018457;28;20049;-84
2023/10/13 06:37:26;;;;;;;4.50;4.13;;;15.60;99.90;;;;;;5026787;28;20506;-82
2023/10/13 06:40:42;;;;;;;7.60;4.82;;;15.90;99.90;;;;;;5023188;28;20123;-83
2023/10/13 06:42:42;;;;;;;5.65;4.20;;;16.50;99.90;;;;;;5022117;28;20495;-81
2023/10/13 06:45:08;;;;;;;6.22;4.35;;;17.10;99.90;;;;;;5023042;28;20045;-84
2023/10/13 06:47:44;;;;;;;5.03;4.40;;;15.70;99.90;;;;;;5040810;28;20596;-81
2023/10/13 06:50:19;;;;;;;5.30;4.80;;;15.70;99.90;;;;;;5027318;28;20116;-82
2023/10/13 06:52:49;;;;;;;7.18;4.00;;;15.70;99.90;;;;;;5024431;28;20048;-84
2023/10/13 06:55:17;;;;;;;5.57;4.03;;;15.70;99.90;;;;;;5039242;28;20111;-85
2023/10/13 06:57:43;;;;;;;4.63;4.18;;;15.90;99.90;;;;;;5022128;28;20460;-84
2023/10/13 07:00:19;;;;;;;8.05;4.15;;;15.90;99.90;;;;;;5022798;28;20488;-83
2023/10/13 07:02:46;;;;;;;7.20;4.00;;;15.90;99.90;;;;;;5024424;28;20049;-84
2023/10/13 07:05:14;;;;;;;5.72;3.60;;;16.00;99.90;;;;;;5026513;28;20033;-81
2023/10/13 07:07:39;;;;;;;11.20;3.58;;;16.00;99.90;;;;;;5041607;28;20106;-83
2023/10/13 07:10:12;;;;;;;8.10;3.88;;;17.10;99.90;;;;;;5038725;28;20519;-83
2023/10/13 07:12:45;;;;;;;8.43;3.70;;;17.00;99.90;;;;;;5041012;28;20037;-82
2023/10/13 07:15:19;;;;;;;8.07;3.70;;;16.00;99.90;;;;;;5026386;28;20048;-83
2023/10/13 07:17:47;;;;;;;8.70;4.18;;;16.00;99.90;;;;;;5039954;28;20036;-82
2023/10/13 07:20:23;;;;;;;11.48;4.18;;;16.00;99.90;;;;;;5023490;28;20067;-84
2023/10/13 07:23:02;;;;;;;13.02;4.13;;;17.20;99.90;;;;;;5041909;28;20064;-82
2023/10/13 07:25:32;;;;;;;12.65;4.22;;;16.00;99.90;;;;;;5026128;28;20037;-82
2023/10/13 07:28:03;;;;;;;8.95;3.70;;;16.00;99.90;;;;;;5015064;28;20120;-83
2023/10/13 07:30:39;;;;;;;9.30;3.63;;;16.00;99.90;;;;;;5022670;28;20048;-83
2023/10/13 07:33:05;;;;;;;10.93;3.72;;;16.00;99.90;;;;;;5011836;28;20040;-84
2023/10/13 07:35:35;;;;;;;13.93;4.32;;;16.00;99.90;;;;;;5025504;28;20151;-80
2023/10/13 07:38:01;;;;;;;11.90;3.75;;;16.40;99.90;;;;;;5051919;28;20148;-80
2023/10/13 07:43:10;;;;;;;8.65;3.90;;;17.20;99.90;;;;;;5061928;28;20044;-83
2023/10/13 07:45:40;;;;;;;10.55;4.28;;;16.00;99.90;;;;;;5036187;28;20048;-84
2023/10/13 07:48:20;;;;;;;9.45;4.47;;;16.70;99.90;;;;;;5045798;28;20663;-81
2023/10/13 07:51:22;;;;;;;14.30;4.85;;;15.80;99.90;;;;;;5060875;28;20503;-80
2023/10/13 07:53:52;;;;;;;12.13;4.35;;;15.90;99.90;;;;;;4274002;28;10000722;-82
2023/10/13 07:56:18;;;;;;;12.30;4.10;;;16.10;99.90;;;;;;5029895;28;20160;-82
2023/10/13 07:59:00;;;;;;;13.73;4.63;;;15.90;99.90;;;;;;5041711;28;20155;-83
2023/10/13 08:01:26;;;;;;;14.00;5.05;;;15.90;99.90;;;;;;5032115;28;20043;-82
2023/10/13 08:04:11;;;;;;;13.20;4.10;;;17.10;99.90;;;;;;5050190;28;20615;-82
2023/10/13 08:06:37;;;;;;;11.30;5.53;;;16.40;99.90;;;;;;5033535;28;20098;-82
2023/10/13 08:09:09;;;;;;;15.27;5.57;;;17.00;99.90;;;;;;5049949;28;20044;-81
2023/10/13 08:11:37;;;;;;;14.20;5.00;;;15.90;99.90;;;;;;5057594;28;20083;-81
2023/10/13 08:19:15;;;;;;;13.88;5.35;;;16.50;99.90;;;;;;5058552;28;20076;-81
2023/10/13 08:21:49;;;;;;;17.45;5.50;;;15.90;99.90;;;;;;5047342;28;20040;-83
2023/10/13 08:27:33;;;;;;;10.85;4.53;;;15.90;99.90;;;;;;5054591;28;20044;-84
2023/10/13 08:45:20;;;;;;;12.75;4.93;;;16.10;99.90;;;;;;5050213;28;20045;-82
2023/10/13 09:09:58;;;;;;;13.35;6.32;;;16.40;99.90;;;;;;5051082;28;20049;-80
2023/10/13 09:14:57;;;;;;;11.90;6.45;;;16.50;99.90;;;;;;5053353;28;20127;-83
2023/10/13 09:17:35;;;;;;;14.02;6.32;;;17.00;99.90;;;;;;5032680;28;20481;-82
2023/10/13 09:23:07;;;;;;;14.43;6.97;;;16.60;99.90;;;;;;5048060;28;20045;-83
2023/10/13 09:25:38;;;;;;;11.75;6.85;;;17.50;99.90;;;;;;5040114;28;20048;-83
2023/10/13 09:28:10;;;;;;;17.58;7.60;;;16.70;99.90;;;;;;5032178;28;20037;-85
2023/10/13 09:30:58;;;;;;;15.27;6.60;;;16.00;99.90;;;;;;5032577;28;20052;-85
2023/10/13 09:33:50;;;;;;;11.07;6.05;;;16.80;99.90;;;;;;5037314;28;20116;-81
2023/10/13 09:36:17;;;;;;;14.98;6.18;;;16.90;99.90;;;;;;5046624;28;20045;-83
2023/10/13 09:38:48;;;;;;;13.40;5.97;;;17.10;99.90;;;;;;5034738;28;20052;-85
2023/10/13 09:41:25;;;;;;;17.50;6.22;;;16.90;99.90;;;;;;5050390;28;20072;-83
2023/10/13 09:43:52;;;;;;;15.25;6.38;;;17.00;99.90;;;;;;5037822;28;20572;-82
2023/10/13 09:46:26;;;;;;;13.35;5.78;;;17.00;99.90;;;;;;5028311;28;20241;-85
2023/10/13 09:49:22;;;;;;;16.80;6.10;;;17.10;99.90;;;;;;5032382;28;20032;-86
2023/10/13 09:51:48;;;;;;;15.25;6.00;;;17.10;99.90;;;;;;5035413;28;20042;-83
2023/10/13 09:54:23;;;;;;;12.95;6.32;;;17.10;99.90;;;;;;5046276;28;20090;-84
2023/10/13 09:57:10;;;;;;;16.13;5.93;;;17.50;99.90;;;;;;5031398;28;20048;-85
2023/10/13 09:59:51;;;;;;;11.23;5.25;;;17.20;99.90;;;;;;5030464;28;20504;-86
2023/10/13 10:02:27;;;;;;;14.50;5.50;;;17.30;99.90;;;;;;5046944;28;20048;-84
2023/10/13 10:04:55;;;;;;;13.82;5.97;;;17.90;99.90;;;;;;5048780;28;20056;-85
2023/10/13 10:07:28;;;;;;;12.48;5.80;;;17.50;99.90;;;;;;5031956;28;20119;-82
2023/10/13 10:10:03;;;;;;;16.92;6.22;;;18.50;99.90;;;;;;5033336;28;20047;-84
2023/10/13 10:12:33;;;;;;;16.85;6.28;;;18.30;99.90;;;;;;5031367;28;20044;-83
2023/10/13 10:15:28;;;;;;;17.35;5.00;;;17.60;99.90;;;;;;5033513;28;20037;-85
2023/10/13 10:17:54;;;;;;;17.95;5.80;;;17.60;99.90;;;;;;5033414;28;20187;-79
2023/10/13 10:20:39;;;;;;;14.95;5.78;;;17.70;99.90;;;;;;5031260;28;20044;-79
2023/10/13 10:23:12;;;;;;;17.83;5.13;;;17.80;99.90;;;;;;5032683;28;20373;-81
2023/10/13 10:25:44;;;;;;;15.32;5.40;;;17.80;99.90;;;;;;5032142;28;20039;-83
2023/10/13 10:28:15;;;;;;;16.20;5.63;;;17.80;99.90;;;;;;5049413;28;20094;-82
2023/10/13 10:30:42;;;;;;;17.13;5.45;;;17.80;99.90;;;;;;5033361;28;20040;-82
2023/10/13 10:33:22;;;;;;;20.48;5.72;;;17.90;99.90;;;;;;5032388;28;20087;-78
2023/10/13 10:36:00;;;;;;;15.27;5.28;;;17.90;99.90;;;;;;5048837;28;20468;-78
2023/10/13 10:41:03;;;;;;;15.02;5.63;;;17.90;99.90;;;;;;5045934;28;20083;-82
2023/10/13 10:43:47;;;;;;;13.60;4.35;;;18.00;99.90;;;;;;5028273;28;20045;-76
2023/10/13 10:46:16;;;;;;;15.90;5.72;;;18.00;99.90;;;;;;5028820;28;20041;-80
2023/10/13 10:48:44;;;;;;;12.57;5.15;;;18.10;99.90;;;;;;5029926;28;20075;-78
2023/10/13 10:51:21;;;;;;;13.88;5.60;;;18.10;99.90;;;;;;5028161;28;20178;-77
2023/10/13 10:53:51;;;;;;;14.73;5.72;;;18.10;99.90;;;;;;5030427;28;20509;-80
2023/10/13 10:56:25;;;;;;;13.32;5.85;;;18.20;99.90;;;;;;5025312;28;20037;-82
2023/10/13 10:58:58;;;;;;;17.95;5.05;;;18.20;99.90;;;;;;5031627;28;20045;-86
2023/10/13 11:01:25;;;;;;;13.07;5.47;;;18.20;99.90;;;;;;5031272;28;20048;-84
2023/10/13 11:03:57;;;;;;;14.70;4.57;;;18.20;99.90;;;;;;4697578;28;9999725;-86
2023/10/13 11:06:25;;;;;;;15.55;5.82;;;18.30;99.90;;;;;;5030664;28;20040;-82
2023/10/13 11:11:52;;;;;;;14.77;5.45;;;19.20;99.90;;;;;;5047117;28;20049;-85
2023/10/13 11:14:28;;;;;;;11.75;5.15;;;18.40;99.90;;;;;;5028117;28;20473;-81
2023/10/13 11:17:03;;;;;;;12.77;5.00;;;18.40;99.90;;;;;;5027253;28;20548;-81
2023/10/13 11:19:42;;;;;;;15.43;5.30;;;18.40;99.90;;;;;;5047773;28;20199;-87
2023/10/13 11:25:09;;;;;;;19.33;5.60;;;18.60;99.90;;;;;;5046630;28;20052;-83
2023/10/13 11:30:24;;;;;;;15.23;5.50;;;18.50;99.90;;;;;;5046944;28;20393;-84
2023/10/13 11:33:05;;;;;;;10.88;4.63;;;18.60;99.90;;;;;;5049972;28;20064;-83
2023/10/13 11:38:42;;;;;;;19.67;5.75;;;19.00;99.90;;;;;;5040747;28;20040;-83
2023/10/13 11:49:17;;;;;;;10.48;5.05;;;18.30;99.90;;;;;;5055015;28;20109;-81
2023/10/13 11:51:49;;;;;;;15.55;5.35;;;18.30;99.90;;;;;;5028966;28;20041;-82
2023/10/13 11:54:17;;;;;;;16.13;6.10;;;18.40;99.90;;;;;;5031291;28;20166;-83
2023/10/13 11:56:45;;;;;;;14.30;5.93;;;18.20;99.90;;;;;;5020950;28;20430;-85
2023/10/13 11:59:17;;;;;;;14.63;5.63;;;18.20;99.90;;;;;;5042333;28;20040;-85
2023/10/13 12:04:41;;;;;;;21.88;6.03;;;18.20;99.90;;;;;;5047417;28;20127;-86
2023/10/13 12:07:16;;;;;;;15.77;6.43;;;18.70;99.90;;;;;;5029614;28;20056;-87
2023/10/13 12:10:32;;;;;;;21.40;6.05;;;18.20;99.90;;;;;;5027617;28;20037;-84
2023/10/13 12:12:41;;;;;;;15.32;6.03;;;18.30;99.90;;;;;;5043920;28;20493;-81
2023/10/13 12:15:14;;;;;;;17.83;6.70;;;18.20;99.90;;;;;;5027603;28;20055;-83
2023/10/13 12:17:44;;;;;;;15.40;6.22;;;18.20;99.90;;;;;;5028404;28;20583;-84
2023/10/13 12:20:10;;;;;;;18.75;6.30;;;18.20;99.90;;;;;;5027208;28;20040;-83
2023/10/13 12:22:42;;;;;;;15.63;5.75;;;18.20;99.90;;;;;;5031490;28;20044;-82
2023/10/13 12:28:06;;;;;;;16.02;5.60;;;19.10;99.90;;;;;;5046478;28;20041;-85
2023/10/13 12:30:51;;;;;;;16.60;6.75;;;18.30;99.90;;;;;;5029784;28;20138;-81
2023/10/13 12:33:24;;;;;;;22.10;7.13;;;18.30;99.90;;;;;;5029582;28;20048;-85
2023/10/13 12:36:06;;;;;;;16.92;5.70;;;18.30;99.90;;;;;;5030370;28;20053;-83
2023/10/13 12:52:16;;;;;;;20.35;6.85;;;18.30;99.90;;;;;;5041062;28;20049;-82
2023/10/13 12:54:47;;;;;;;15.93;7.22;;;18.20;99.90;;;;;;5028878;28;20261;-85
2023/10/13 12:57:15;;;;;;;22.88;6.47;;;18.20;99.90;;;;;;5030537;28;20560;-83
2023/10/13 12:59:41;;;;;;;18.15;6.50;;;18.20;99.90;;;;;;5030396;28;20053;-85
2023/10/13 13:02:14;;;;;;;14.60;7.25;;;18.20;99.90;;;;;;5030062;28;20048;-80
2023/10/13 13:04:43;;;;;;;17.40;6.18;;;18.30;99.90;;;;;;5030187;28;20036;-81
2023/10/13 13:07:13;;;;;;;18.23;6.40;;;18.10;99.90;;;;;;5033020;28;20051;-82
2023/10/13 13:09:40;;;;;;;17.92;7.85;;;18.10;99.90;;;;;;5031303;28;20071;-87
2023/10/13 13:12:06;;;;;;;18.25;7.15;;;18.20;99.90;;;;;;5050666;28;20079;-83
2023/10/13 13:14:34;;;;;;;17.20;8.60;;;18.10;99.90;;;;;;5030757;28;20045;-82
2023/10/13 13:17:06;;;;;;;19.10;7.72;;;18.10;99.90;;;;;;5030990;28;20788;-83
2023/10/13 13:19:40;;;;;;;12.98;7.45;;;18.00;99.90;;;;;;5044865;28;20041;-84
2023/10/13 13:22:13;;;;;;;17.30;7.82;;;18.00;99.90;;;;;;5048140;28;20757;-83
2023/10/13 13:24:46;;;;;;;17.13;8.02;;;17.90;99.90;;;;;;5045178;28;20389;-85
2023/10/13 13:27:13;;;;;;;23.95;9.13;;;17.90;99.90;;;;;;5047623;28;20056;-84
2023/10/13 13:29:46;;;;;;;24.63;7.53;;;18.20;99.90;;;;;;5046822;28;20045;-85
2023/10/13 13:32:24;;;;;;;19.30;9.20;;;17.90;99.90;;;;;;5031171;28;20123;-85
2023/10/13 13:35:05;;;;;;;18.67;7.45;;;17.80;99.90;;;;;;5052975;28;20049;-85
2023/10/13 13:37:34;;;;;;;18.27;7.88;;;17.80;99.90;;;;;;5047979;28;20056;-83
2023/10/13 13:40:16;;;;;;;16.67;7.28;;;17.80;99.90;;;;;;5032705;28;20059;-82
2023/10/13 13:42:45;;;;;;;20.27;7.38;;;17.80;99.90;;;;;;5045083;28;20038;-83
2023/10/13 13:45:27;;;;;;;20.95;7.63;;;17.80;99.90;;;;;;5040676;28;20727;-81
2023/10/13 13:47:53;;;;;;;23.80;8.15;;;18.30;99.90;;;;;;5049223;28;20507;-82
2023/10/13 13:50:30;;;;;;;18.60;6.93;;;17.80;99.90;;;;;;5039827;28;20041;-82
2023/10/13 13:53:01;;;;;;;18.90;7.90;;;17.90;99.90;;;;;;5029902;28;20094;-84
2023/10/13 13:55:31;;;;;;;15.95;7.78;;;17.90;99.90;;;;;;5046109;28;20052;-82
2023/10/13 13:57:57;;;;;;;22.25;7.72;;;17.80;99.90;;;;;;5031028;28;20383;-83
2023/10/13 14:00:38;;;;;;;12.85;6.80;;;18.30;99.90;;;;;;5045043;28;20043;-84
2023/10/13 14:03:05;;;;;;;17.17;5.70;;;17.80;99.90;;;;;;5049964;28;20084;-83
2023/10/13 14:05:30;;;;;;;21.77;7.40;;;17.90;99.90;;;;;;5029834;28;20045;-82
2023/10/13 14:07:56;;;;;;;17.77;7.38;;;17.90;99.90;;;;;;5049021;28;20100;-82
2023/10/13 14:11:13;;;;;;;20.90;7.32;;;18.20;99.90;;;;;;5032638;28;20053;-82
2023/10/13 14:13:22;;;;;;;23.58;7.50;;;18.60;99.90;;;;;;5046688;28;20078;-81
2023/10/13 14:15:48;;;;;;;20.95;7.50;;;17.90;99.90;;;;;;5046949;28;20076;-83
2023/10/13 14:18:16;;;;;;;20.27;6.75;;;17.80;99.90;;;;;;5050789;28;20044;-82
2023/10/13 14:20:42;;;;;;;18.70;8.07;;;17.80;99.90;;;;;;5030939;28;20044;-80
2023/10/13 14:23:11;;;;;;;16.42;7.07;;;18.00;99.90;;;;;;5031012;28;20049;-86
2023/10/13 14:25:38;;;;;;;18.00;7.30;;;17.90;99.90;;;;;;5028107;28;20091;-82
2023/10/13 14:28:07;;;;;;;18.45;6.85;;;17.80;99.90;;;;;;5027093;28;20041;-85
2023/10/13 14:30:33;;;;;;;19.83;7.55;;;17.80;99.90;;;;;;5028585;28;20040;-85
2023/10/13 14:32:59;;;;;;;13.77;6.07;;;17.80;99.90;;;;;;5026272;28;20052;-87
2023/10/13 14:35:28;;;;;;;18.92;8.45;;;17.80;99.90;;;;;;5028989;28;20037;-84
2023/10/13 14:37:54;;;;;;;20.55;7.80;;;17.80;99.90;;;;;;5046646;28;20041;-81
2023/10/13 14:40:21;;;;;;;14.02;6.78;;;17.80;99.90;;;;;;5056196;28;20554;-81
2023/10/13 14:42:47;;;;;;;22.42;7.18;;;17.80;99.90;;;;;;5040340;28;20083;-81
2023/10/13 14:45:16;;;;;;;17.83;6.47;;;18.70;99.90;;;;;;5054637;28;20568;-82
2023/10/13 14:47:42;;;;;;;17.08;7.10;;;18.50;99.90;;;;;;5053636;28;20396;-82
2023/10/13 14:50:21;;;;;;;15.05;7.18;;;17.80;99.90;;;;;;5059551;28;20102;-81
2023/10/13 14:52:48;;;;;;;20.17;7.22;;;17.80;99.90;;;;;;5041416;28;20120;-83
2023/10/13 14:55:18;;;;;;;21.40;6.63;;;18.30;99.90;;;;;;5054800;28;20480;-80
2023/10/13 14:57:46;;;;;;;9.38;5.28;;;17.90;99.90;;;;;;5056415;28;20461;-85
2023/10/13 15:00:14;;;;;;;15.85;5.97;;;18.90;99.90;;;;;;5031786;28;20439;-87
2023/10/13 15:02:42;;;;;;;15.27;6.47;;;18.10;99.90;;;;;;5038632;28;20045;-85
2023/10/13 15:05:16;;;;;;;15.15;7.15;;;18.40;99.90;;;;;;5054692;28;20635;-85
2023/10/13 15:07:44;;;;;;;15.87;5.20;;;18.10;99.90;;;;;;5024860;28;20055;-84
2023/10/13 15:10:14;;;;;;;19.08;5.63;;;18.20;99.90;;;;;;5055090;28;20495;-83
2023/10/13 15:12:44;;;;;;;21.67;7.07;;;18.30;99.90;;;;;;5039316;28;20041;-86
2023/10/13 15:15:13;;;;;;;17.08;6.32;;;18.30;99.90;;;;;;5042610;28;20044;-84
2023/10/13 15:17:43;;;;;;;21.73;7.38;;;18.20;99.90;;;;;;5042984;28;20462;-84
2023/10/13 15:20:18;;;;;;;16.23;5.95;;;18.40;99.90;;;;;;5038730;28;20032;-84
2023/10/13 15:22:44;;;;;;;21.55;7.00;;;18.00;99.90;;;;;;5055005;28;20082;-85
2023/10/13 15:25:39;;;;;;;17.38;6.78;;;18.00;99.90;;;;;;5038899;28;20098;-84
2023/10/13 15:28:03;;;;;;;17.40;7.15;;;17.90;99.90;;;;;;5056322;28;20562;-85
2023/10/13 15:30:44;;;;;;;18.00;6.75;;;17.80;99.90;;;;;;5042116;28;20036;-82
2023/10/13 15:33:13;;;;;;;14.65;6.57;;;17.80;99.90;;;;;;5039262;28;20120;-83
2023/10/13 15:35:42;;;;;;;19.67;7.55;;;18.10;99.90;;;;;;5055121;28;20102;-83
2023/10/13 15:38:12;;;;;;;15.98;6.90;;;17.80;99.90;;;;;;5041677;28;20147;-86
2023/10/13 15:40:43;;;;;;;17.27;7.20;;;17.70;99.90;;;;;;5041778;28;20044;-83
2023/10/13 15:43:08;;;;;;;17.92;7.07;;;17.50;99.90;;;;;;5055350;28;20318;-82
2023/10/13 15:45:43;;;;;;;21.98;7.70;;;18.40;99.90;;;;;;5055259;28;20048;-86
2023/10/13 15:48:11;;;;;;;20.13;8.27;;;17.60;99.90;;;;;;5047105;28;20049;-84
2023/10/13 15:50:40;;;;;;;28.45;7.93;;;18.60;99.90;;;;;;5038206;28;20052;-84
2023/10/13 15:53:07;;;;;;;16.15;7.35;;;17.60;99.90;;;;;;5057762;28;20049;-86
2023/10/13 15:55:37;;;;;;;20.75;8.00;;;17.60;99.90;;;;;;5036812;28;20110;-83
2023/10/13 15:58:07;;;;;;;19.20;8.52;;;17.80;99.90;;;;;;5056580;28;20033;-83
2023/10/13 16:00:35;;;;;;;16.20;8.68;;;17.60;99.90;;;;;;5040337;28;20508;-84
2023/10/13 16:03:00;;;;;;;19.33;8.63;;;17.80;99.90;;;;;;5039029;28;20033;-84
2023/10/13 16:05:37;;;;;;;21.15;8.40;;;17.50;99.90;;;;;;5041875;28;20526;-84
2023/10/13 16:08:10;;;;;;;17.77;6.50;;;17.80;99.90;;;;;;5052433;28;20841;-80
2023/10/13 16:10:37;;;;;;;20.38;7.70;;;17.60;99.90;;;;;;5049109;28;20041;-81
2023/10/13 16:13:05;;;;;;;23.00;7.60;;;17.60;99.90;;;;;;5037926;28;20049;-79
2023/10/13 16:15:30;;;;;;;14.38;6.75;;;17.60;99.90;;;;;;5029823;28;20396;-80
2023/10/13 16:17:56;;;;;;;14.35;6.72;;;17.60;99.90;;;;;;4334776;28;10000706;-85
2023/10/13 16:20:24;;;;;;;17.67;6.95;;;17.90;99.90;;;;;;5049286;28;20132;-83
2023/10/13 16:22:50;;;;;;;13.63;6.22;;;17.60;99.90;;;;;;5027815;28;20078;-80
2023/10/13 16:25:16;;;;;;;19.45;7.05;;;17.50;99.90;;;;;;5029573;28;20036;-80
2023/10/13 16:27:43;;;;;;;14.65;6.45;;;18.80;99.90;;;;;;5048340;28;20044;-84
2023/10/13 16:30:14;;;;;;;13.60;6.47;;;17.60;99.90;;;;;;5050526;28;20120;-85
2023/10/13 16:32:46;;;;;;;17.73;6.63;;;17.50;99.90;;;;;;5035502;28;20052;-85